Time;durP1;ratioP1;P1;durP2;ratioP2;P2;SDS_P1;SDS_P2;PMS_P1;PMS_P2;Temp;Humidity;BMP_temperature;BMP_pressure;BME280_temperature;BME280_humidity;BME280_pressure;Samples;Min_cycle;Max_cycle;Signal;HPM_P1;HPM_P2
2023/07/08 00:00:13;;;;;;;12.27;8.20;;;24.80;83.00;;;;;;4246944;27;20130;-51
2023/07/08 00:02:15;;;;;;;18.52;8.73;;;24.80;83.20;;;;;;4248098;27;20126;-51
2023/07/08 00:04:17;;;;;;;11.60;7.35;;;24.80;83.10;;;;;;4247916;27;20039;-51
2023/07/08 00:06:21;;;;;;;13.00;6.35;;;24.70;83.10;;;;;;4247646;27;20043;-50
2023/07/08 00:08:24;;;;;;;9.93;6.82;;;24.70;83.10;;;;;;4229885;27;20044;-50
2023/07/08 00:10:28;;;;;;;14.68;7.25;;;24.70;83.00;;;;;;4247023;27;20070;-51
2023/07/08 00:12:31;;;;;;;19.15;7.65;;;24.70;83.10;;;;;;4247452;27;20133;-51
2023/07/08 00:14:33;;;;;;;16.10;7.07;;;24.60;83.30;;;;;;4247583;27;20043;-51
2023/07/08 00:16:35;;;;;;;12.13;7.35;;;24.60;83.30;;;;;;4247638;27;20047;-52
2023/07/08 00:18:38;;;;;;;16.08;7.88;;;24.60;83.20;;;;;;4247638;27;20122;-51
2023/07/08 00:20:44;;;;;;;15.50;7.60;;;24.60;83.40;;;;;;4246582;27;20466;-50
2023/07/08 00:22:52;;;;;;;14.20;7.93;;;24.60;83.40;;;;;;4247690;27;20511;-51
2023/07/08 00:24:54;;;;;;;10.52;7.75;;;24.60;83.50;;;;;;4247287;27;20387;-52
2023/07/08 00:26:56;;;;;;;16.83;7.50;;;24.50;84.10;;;;;;4247194;27;20047;-49
2023/07/08 00:29:00;;;;;;;12.30;8.18;;;24.50;84.90;;;;;;4247283;27;20047;-52
2023/07/08 00:31:02;;;;;;;15.05;7.88;;;24.40;85.10;;;;;;4246261;27;20405;-52
2023/07/08 00:33:06;;;;;;;9.90;6.72;;;24.40;85.50;;;;;;4247562;27;20440;-51
2023/07/08 00:35:08;;;;;;;9.77;6.77;;;24.30;85.40;;;;;;4247488;27;20145;-52
2023/07/08 00:37:12;;;;;;;10.93;6.97;;;24.30;84.90;;;;;;4247655;28;20043;-52
2023/07/08 00:39:14;;;;;;;12.00;6.38;;;24.30;85.20;;;;;;4247006;28;20140;-52
2023/07/08 00:41:21;;;;;;;11.57;6.32;;;24.30;84.90;;;;;;4246568;28;20046;-54
2023/07/08 00:43:33;;;;;;;8.13;5.95;;;24.30;85.40;;;;;;4249498;27;20043;-52
2023/07/08 00:45:44;;;;;;;11.40;6.00;;;24.20;85.50;;;;;;4251068;27;20404;-52
2023/07/08 00:48:10;;;;;;;13.10;6.20;;;24.30;86.40;;;;;;4250767;27;20421;-51
2023/07/08 00:50:13;;;;;;;13.68;6.72;;;24.30;86.30;;;;;;4249636;27;20474;-52
2023/07/08 00:52:22;;;;;;;11.27;6.47;;;24.20;86.20;;;;;;4250603;27;20529;-52
2023/07/08 00:54:24;;;;;;;7.90;6.10;;;24.20;87.00;;;;;;4250619;27;20121;-53
2023/07/08 00:56:30;;;;;;;8.65;5.35;;;24.10;86.50;;;;;;4250522;27;20185;-50
2023/07/08 00:58:38;;;;;;;18.52;7.07;;;24.10;86.70;;;;;;4250559;27;20043;-50
2023/07/08 01:00:41;;;;;;;14.27;6.43;;;24.10;86.30;;;;;;4249731;27;20434;-52
2023/07/08 01:02:48;;;;;;;9.75;5.82;;;24.10;85.70;;;;;;4250430;27;20047;-49
2023/07/08 01:05:04;;;;;;;15.65;7.20;;;24.10;85.80;;;;;;4250262;27;20050;-52
2023/07/08 01:07:07;;;;;;;8.88;6.13;;;24.10;86.00;;;;;;4250400;27;20071;-52
2023/07/08 01:09:12;;;;;;;12.57;6.53;;;24.10;86.00;;;;;;4250451;27;20119;-52
2023/07/08 01:11:14;;;;;;;9.77;5.78;;;24.10;85.80;;;;;;4249157;27;20497;-54
2023/07/08 01:13:17;;;;;;;12.40;6.72;;;24.10;85.50;;;;;;4250661;27;20118;-52
2023/07/08 01:15:21;;;;;;;14.88;6.28;;;24.10;85.70;;;;;;4250256;27;20458;-52
2023/07/08 01:17:25;;;;;;;10.90;6.43;;;24.10;85.40;;;;;;4250461;27;20043;-52
2023/07/08 01:19:34;;;;;;;9.93;6.05;;;24.10;85.40;;;;;;4249861;27;20516;-52
2023/07/08 01:21:38;;;;;;;16.45;6.72;;;24.10;85.20;;;;;;4250234;27;20049;-50
2023/07/08 01:23:41;;;;;;;10.38;5.85;;;24.20;85.30;;;;;;4250183;27;20051;-50
2023/07/08 01:25:45;;;;;;;10.40;5.85;;;24.10;85.20;;;;;;4249955;27;20440;-50
2023/07/08 01:27:51;;;;;;;8.75;6.20;;;24.10;86.40;;;;;;4250129;27;20053;-52
2023/07/08 01:29:54;;;;;;;10.20;5.20;;;24.00;86.70;;;;;;4248976;27;20051;-52
2023/07/08 01:31:56;;;;;;;14.60;5.60;;;24.00;86.90;;;;;;4250325;27;20439;-51
2023/07/08 01:33:59;;;;;;;10.52;5.60;;;24.00;86.80;;;;;;4250200;27;20539;-51
2023/07/08 01:36:01;;;;;;;12.50;6.13;;;23.90;87.20;;;;;;4250016;27;20055;-52
2023/07/08 01:38:08;;;;;;;10.57;6.13;;;23.90;86.90;;;;;;4250075;27;20063;-53
2023/07/08 01:40:24;;;;;;;12.75;5.82;;;23.90;86.40;;;;;;4248481;27;20043;-53
2023/07/08 01:42:25;;;;;;;;;;;23.90;86.40;;;;;;4250505;27;20070;-53
2023/07/08 01:44:30;;;;;;;12.38;6.30;;;23.90;86.90;;;;;;4231892;28;19923;-53
2023/07/08 01:46:32;;;;;;;;;;;23.80;88.00;;;;;;4250309;27;20532;-53
2023/07/08 01:48:39;;;;;;;8.57;5.22;;;23.70;89.00;;;;;;4249933;27;19930;-53
2023/07/08 01:50:45;;;;;;;9.05;5.43;;;23.70;88.20;;;;;;4248690;27;20043;-53
2023/07/08 01:52:49;;;;;;;12.05;6.05;;;23.70;88.10;;;;;;4249940;27;20047;-52
2023/07/08 01:54:55;;;;;;;9.00;5.70;;;23.70;88.40;;;;;;4249368;27;20075;-52
2023/07/08 01:57:00;;;;;;;11.00;6.10;;;23.70;88.80;;;;;;4231366;28;20040;-52
2023/07/08 01:59:02;;;;;;;11.70;5.57;;;23.70;88.90;;;;;;4249926;27;20047;-53
2023/07/08 02:01:05;;;;;;;16.05;8.88;;;23.80;87.80;;;;;;4248867;27;20138;-53
2023/07/08 02:03:07;;;;;;;13.20;8.00;;;23.80;86.80;;;;;;4249831;27;20095;-52
2023/07/08 02:05:09;;;;;;;17.60;8.43;;;23.90;85.80;;;;;;4249594;27;20043;-51
2023/07/08 02:07:11;;;;;;;15.82;8.02;;;24.00;85.40;;;;;;4249494;27;20043;-53
2023/07/08 02:09:13;;;;;;;10.98;7.45;;;24.00;84.70;;;;;;4249358;27;20146;-52
2023/07/08 02:11:15;;;;;;;20.13;6.30;;;24.10;84.50;;;;;;4248358;27;20497;-50
2023/07/08 02:13:18;;;;;;;15.35;6.00;;;24.10;84.60;;;;;;4249379;27;20069;-50
2023/07/08 02:15:20;;;;;;;8.75;4.72;;;24.20;84.40;;;;;;4249642;27;20133;-50
2023/07/08 02:17:22;;;;;;;16.38;5.55;;;24.20;84.40;;;;;;4249290;27;20043;-50
2023/07/08 02:19:25;;;;;;;15.90;4.90;;;24.30;84.10;;;;;;4249563;27;20050;-50
2023/07/08 02:21:30;;;;;;;8.77;4.32;;;24.30;84.70;;;;;;4248394;27;20493;-49
2023/07/08 02:23:32;;;;;;;6.97;3.70;;;24.30;84.80;;;;;;4248972;27;20065;-50
2023/07/08 02:25:34;;;;;;;10.82;4.30;;;24.30;85.30;;;;;;4249217;27;20130;-53
2023/07/08 02:27:37;;;;;;;10.43;4.22;;;24.30;85.20;;;;;;4249322;27;20057;-50
2023/07/08 02:29:40;;;;;;;9.35;3.85;;;24.30;85.60;;;;;;4248725;27;20046;-50
2023/07/08 02:31:43;;;;;;;8.93;4.88;;;24.30;86.10;;;;;;4248868;27;20043;-52
2023/07/08 02:33:45;;;;;;;7.13;3.35;;;24.30;86.20;;;;;;4249047;27;20138;-53
2023/07/08 02:35:47;;;;;;;9.15;3.70;;;24.30;85.90;;;;;;4249176;27;20047;-53
2023/07/08 02:37:49;;;;;;;8.10;3.50;;;24.30;86.20;;;;;;4248951;27;20114;-53
2023/07/08 02:39:51;;;;;;;12.00;4.00;;;24.20;86.20;;;;;;4248110;27;20087;-51
2023/07/08 02:41:53;;;;;;;10.98;3.17;;;24.30;85.90;;;;;;4248685;27;20409;-52
2023/07/08 02:43:55;;;;;;;6.22;3.10;;;24.30;86.40;;;;;;4249095;27;20129;-52
2023/07/08 02:45:59;;;;;;;12.23;4.03;;;24.20;86.10;;;;;;4248805;27;20050;-52
2023/07/08 02:48:01;;;;;;;7.15;3.40;;;24.30;86.10;;;;;;4249121;27;20101;-53
2023/07/08 02:50:04;;;;;;;6.47;2.90;;;24.30;86.00;;;;;;4229642;28;20141;-51
2023/07/08 02:52:06;;;;;;;7.55;2.72;;;24.20;86.30;;;;;;4248396;27;20047;-52
2023/07/08 02:54:09;;;;;;;11.50;3.08;;;24.30;86.30;;;;;;4248650;27;20461;-51
2023/07/08 02:56:11;;;;;;;8.57;3.03;;;24.20;86.20;;;;;;4230563;28;20047;-53
2023/07/08 02:58:13;;;;;;;6.68;3.40;;;24.30;86.20;;;;;;4248832;27;20122;-52
2023/07/08 03:00:15;;;;;;;5.88;2.72;;;24.30;86.20;;;;;;4247867;27;20142;-52
2023/07/08 03:02:19;;;;;;;3.92;2.83;;;24.20;86.10;;;;;;4248551;27;20094;-51
2023/07/08 03:04:21;;;;;;;6.32;2.63;;;24.20;86.20;;;;;;4248729;27;20043;-51
2023/07/08 03:06:23;;;;;;;4.90;2.55;;;24.20;86.20;;;;;;4247751;27;20043;-51
2023/07/08 03:08:26;;;;;;;6.22;2.65;;;24.20;86.20;;;;;;4248763;27;20134;-51
2023/07/08 03:10:28;;;;;;;5.28;2.88;;;24.20;86.20;;;;;;4247712;27;20067;-52
2023/07/08 03:12:30;;;;;;;8.02;2.50;;;24.20;86.30;;;;;;4248510;27;20500;-52
2023/07/08 03:14:32;;;;;;;4.35;2.40;;;24.10;86.30;;;;;;4248308;27;20185;-52
2023/07/08 03:16:34;;;;;;;3.83;2.20;;;24.10;86.40;;;;;;4248550;27;20053;-52
2023/07/08 03:18:45;;;;;;;4.68;2.45;;;24.10;86.70;;;;;;4248480;27;20050;-51
2023/07/08 03:20:48;;;;;;;5.03;2.00;;;24.00;86.30;;;;;;4228558;28;20048;-54
2023/07/08 03:22:50;;;;;;;5.55;2.40;;;24.00;86.60;;;;;;4248228;27;20042;-54
2023/07/08 03:24:52;;;;;;;3.88;2.20;;;24.00;86.60;;;;;;4248156;27;20070;-54
2023/07/08 03:26:54;;;;;;;3.20;2.13;;;24.00;86.70;;;;;;4248194;27;20054;-55
2023/07/08 03:28:56;;;;;;;4.43;2.05;;;24.00;86.80;;;;;;4230088;28;20198;-54
2023/07/08 03:30:58;;;;;;;2.75;1.98;;;23.90;86.70;;;;;;4247265;27;20092;-54
2023/07/08 03:33:01;;;;;;;3.80;2.22;;;23.90;86.60;;;;;;4248342;27;20043;-53
2023/07/08 03:35:05;;;;;;;3.13;1.95;;;23.90;86.60;;;;;;4247975;27;20047;-55
2023/07/08 03:37:09;;;;;;;5.13;2.40;;;23.90;86.30;;;;;;4248326;27;20054;-50
2023/07/08 03:39:12;;;;;;;4.10;1.90;;;23.90;86.10;;;;;;4248238;27;20409;-52
2023/07/08 03:41:14;;;;;;;4.32;1.75;;;23.90;86.90;;;;;;4246985;27;20047;-52
2023/07/08 03:43:16;;;;;;;3.47;1.83;;;23.80;87.00;;;;;;4248000;27;20496;-55
2023/07/08 03:45:18;;;;;;;2.88;1.63;;;23.80;87.10;;;;;;4248059;27;20043;-53
2023/07/08 03:47:20;;;;;;;2.25;1.58;;;23.80;86.80;;;;;;4247877;27;20498;-53
2023/07/08 03:49:23;;;;;;;3.00;1.95;;;23.70;87.00;;;;;;4246694;27;20051;-52
2023/07/08 03:51:31;;;;;;;3.83;1.42;;;23.80;87.00;;;;;;4246949;27;20121;-52
2023/07/08 03:53:33;;;;;;;3.67;1.80;;;23.70;86.90;;;;;;4247990;27;20069;-53
2023/07/08 03:55:35;;;;;;;2.67;1.88;;;23.70;86.80;;;;;;4247968;27;20051;-55
2023/07/08 03:57:37;;;;;;;6.25;2.20;;;23.70;86.60;;;;;;4247966;27;20047;-55
2023/07/08 03:59:39;;;;;;;5.95;2.22;;;23.70;86.60;;;;;;4229596;28;20047;-55
2023/07/08 04:01:41;;;;;;;6.50;2.22;;;23.70;86.60;;;;;;4246733;27;20155;-55
2023/07/08 04:03:44;;;;;;;3.70;2.10;;;23.70;86.40;;;;;;4247368;27;20043;-54
2023/07/08 04:05:46;;;;;;;3.85;1.95;;;23.70;86.40;;;;;;4247551;27;20047;-54
2023/07/08 04:07:49;;;;;;;4.75;2.00;;;23.70;86.40;;;;;;4229386;28;20498;-53
2023/07/08 04:09:51;;;;;;;9.18;2.13;;;23.70;86.40;;;;;;4247512;27;20073;-55
2023/07/08 04:11:54;;;;;;;3.55;1.80;;;23.70;86.50;;;;;;4246646;27;20074;-54
2023/07/08 04:13:56;;;;;;;3.88;2.00;;;23.60;86.30;;;;;;4247552;27;20051;-54
2023/07/08 04:16:01;;;;;;;4.68;2.22;;;23.60;86.30;;;;;;4229216;28;20047;-53
2023/07/08 04:18:03;;;;;;;4.03;1.92;;;23.60;86.50;;;;;;4246503;27;20035;-54
2023/07/08 04:20:10;;;;;;;5.00;2.05;;;23.60;86.80;;;;;;4246744;27;20080;-55
2023/07/08 04:22:12;;;;;;;5.70;2.28;;;23.50;86.90;;;;;;4247258;27;20047;-53
2023/07/08 04:24:17;;;;;;;4.63;2.05;;;23.50;86.90;;;;;;4247235;27;20497;-54
2023/07/08 04:26:19;;;;;;;;;;;23.50;87.00;;;;;;4247853;27;20181;-54
2023/07/08 04:28:21;;;;;;;4.28;2.65;;;23.40;87.20;;;;;;4247488;27;19923;-53
2023/07/08 04:30:25;;;;;;;5.30;1.90;;;23.40;87.00;;;;;;4228270;28;20716;-53
2023/07/08 04:32:27;;;;;;;3.93;2.13;;;23.40;87.00;;;;;;4247067;27;20055;-55
2023/07/08 04:34:30;;;;;;;3.10;1.90;;;23.40;86.90;;;;;;4247455;27;20531;-53
2023/07/08 04:36:33;;;;;;;6.43;2.50;;;23.40;86.90;;;;;;4247328;27;20039;-54
2023/07/08 04:38:36;;;;;;;3.63;2.17;;;23.40;86.80;;;;;;4247360;28;20075;-51
2023/07/08 04:40:40;;;;;;;3.58;1.65;;;23.50;87.00;;;;;;4246462;28;20478;-51
2023/07/08 04:42:42;;;;;;;2.75;1.80;;;23.50;87.10;;;;;;4247396;28;20050;-51
2023/07/08 04:44:44;;;;;;;2.92;1.83;;;23.50;87.60;;;;;;4247237;28;20455;-51
2023/07/08 04:46:50;;;;;;;4.20;1.90;;;23.50;88.50;;;;;;4247519;28;20421;-52
2023/07/08 04:48:53;;;;;;;5.32;2.00;;;23.50;88.40;;;;;;4247098;27;20474;-52
2023/07/08 04:50:55;;;;;;;4.32;2.20;;;23.50;87.90;;;;;;4246317;28;20162;-51
2023/07/08 04:52:57;;;;;;;3.60;2.03;;;23.60;87.30;;;;;;4247115;28;20080;-51
2023/07/08 04:54:59;;;;;;;4.35;1.80;;;23.60;87.60;;;;;;4247041;28;20055;-52
2023/07/08 04:57:03;;;;;;;4.57;2.17;;;23.60;87.50;;;;;;4247402;28;20417;-52
2023/07/08 04:59:07;;;;;;;5.22;2.33;;;23.60;88.40;;;;;;4247410;28;20130;-51
2023/07/08 05:01:09;;;;;;;3.10;1.80;;;23.60;88.50;;;;;;4246304;28;20044;-51
2023/07/08 05:03:11;;;;;;;3.50;1.88;;;23.60;88.90;;;;;;4228813;28;20441;-50
2023/07/08 05:05:13;;;;;;;2.97;1.60;;;23.50;88.40;;;;;;4246814;28;20089;-53
2023/07/08 05:07:15;;;;;;;3.78;2.00;;;23.60;88.30;;;;;;4246880;28;20062;-51
2023/07/08 05:09:17;;;;;;;3.80;2.00;;;23.60;88.80;;;;;;4247121;28;20122;-51
2023/07/08 05:11:20;;;;;;;4.75;2.00;;;23.60;88.00;;;;;;4246001;28;20126;-51
2023/07/08 05:13:23;;;;;;;4.32;2.40;;;23.70;87.70;;;;;;4247198;28;20122;-51
2023/07/08 05:15:25;;;;;;;4.85;2.22;;;23.70;87.70;;;;;;4247000;28;20039;-52
2023/07/08 05:17:27;;;;;;;5.78;2.15;;;23.70;88.60;;;;;;4246820;28;20055;-52
2023/07/08 05:19:30;;;;;;;5.82;2.05;;;23.70;88.20;;;;;;4247427;28;20058;-51
2023/07/08 05:21:34;;;;;;;4.95;2.35;;;23.70;88.10;;;;;;4245935;27;20482;-52
2023/07/08 05:23:36;;;;;;;3.65;2.17;;;23.80;87.50;;;;;;4228731;28;20494;-52
2023/07/08 05:25:38;;;;;;;4.03;1.85;;;23.70;87.50;;;;;;4247139;28;20482;-52
2023/07/08 05:27:41;;;;;;;4.75;1.98;;;23.80;87.20;;;;;;4247098;28;20044;-50
2023/07/08 05:29:46;;;;;;;5.70;2.15;;;23.80;87.30;;;;;;4249458;27;20055;-50
2023/07/08 05:31:48;;;;;;;3.22;1.88;;;23.90;87.00;;;;;;4248725;27;20046;-50
2023/07/08 05:33:50;;;;;;;7.63;2.03;;;23.90;87.70;;;;;;4250093;27;20405;-51
2023/07/08 05:35:53;;;;;;;3.17;1.73;;;23.90;88.20;;;;;;4250283;27;20046;-51
2023/07/08 05:37:55;;;;;;;3.63;1.90;;;23.90;88.60;;;;;;4250331;27;20539;-51
2023/07/08 05:39:59;;;;;;;4.30;1.90;;;23.80;89.00;;;;;;4250374;27;20100;-51
2023/07/08 05:42:02;;;;;;;4.05;1.98;;;23.80;88.40;;;;;;4248990;27;20062;-51
2023/07/08 05:44:04;;;;;;;4.07;1.90;;;23.80;89.00;;;;;;4249992;27;20438;-49
2023/07/08 05:46:08;;;;;;;6.78;2.20;;;23.80;88.70;;;;;;4249944;27;20130;-50
2023/07/08 05:48:14;;;;;;;5.93;2.28;;;23.80;89.40;;;;;;4250121;27;20403;-50
2023/07/08 05:50:16;;;;;;;6.20;2.08;;;23.80;89.80;;;;;;4249555;27;20043;-50
2023/07/08 05:52:18;;;;;;;5.82;2.55;;;23.80;89.60;;;;;;4249181;27;20047;-51
2023/07/08 05:54:20;;;;;;;3.55;1.75;;;23.90;89.30;;;;;;4249730;27;20391;-50
2023/07/08 05:56:22;;;;;;;4.53;2.15;;;23.90;89.20;;;;;;4249875;27;20382;-50
2023/07/08 05:58:24;;;;;;;5.72;2.47;;;23.90;89.00;;;;;;4249860;27;20095;-51
2023/07/08 06:00:28;;;;;;;4.15;2.00;;;23.90;89.80;;;;;;4248534;27;20104;-51
2023/07/08 06:02:41;;;;;;;3.67;2.20;;;23.90;90.10;;;;;;4249331;27;20500;-50
2023/07/08 06:04:43;;;;;;;4.20;2.38;;;23.90;89.90;;;;;;4249855;27;20427;-52
2023/07/08 06:06:45;;;;;;;5.20;2.47;;;23.90;89.40;;;;;;4249569;27;20056;-51
2023/07/08 06:08:47;;;;;;;6.47;2.70;;;23.90;89.30;;;;;;4249502;27;20047;-50
2023/07/08 06:10:50;;;;;;;6.38;2.50;;;24.00;89.60;;;;;;4248443;27;20096;-51
2023/07/08 06:12:52;;;;;;;5.25;2.00;;;24.00;89.20;;;;;;4249363;27;20138;-51
2023/07/08 06:14:54;;;;;;;5.55;2.05;;;24.10;90.10;;;;;;4249173;27;20078;-50
2023/07/08 06:16:58;;;;;;;4.93;2.08;;;24.10;89.50;;;;;;4249518;27;20370;-50
2023/07/08 06:19:01;;;;;;;3.88;2.30;;;24.20;89.30;;;;;;4249495;27;20119;-50
2023/07/08 06:21:03;;;;;;;5.70;2.33;;;24.30;88.60;;;;;;4248312;27;20046;-49
2023/07/08 06:23:05;;;;;;;5.38;2.38;;;24.30;89.00;;;;;;4249369;27;20074;-51
2023/07/08 06:25:08;;;;;;;7.47;2.75;;;24.20;88.90;;;;;;4249113;27;20051;-51
2023/07/08 06:27:10;;;;;;;8.63;2.95;;;24.30;88.90;;;;;;4249466;27;20402;-50
2023/07/08 06:29:12;;;;;;;8.23;2.60;;;24.30;88.50;;;;;;4248654;27;20051;-51
2023/07/08 06:31:14;;;;;;;11.98;2.78;;;24.30;88.20;;;;;;4248318;27;20070;-50
2023/07/08 06:33:21;;;;;;;6.38;2.47;;;24.40;88.00;;;;;;4248990;27;20046;-49
2023/07/08 06:35:30;;;;;;;5.00;2.47;;;24.50;87.40;;;;;;4231637;27;20051;-51
2023/07/08 06:37:32;;;;;;;9.18;2.72;;;24.50;86.70;;;;;;4249222;27;20398;-51
2023/07/08 06:39:34;;;;;;;4.88;2.58;;;24.50;86.50;;;;;;4249044;27;20104;-51
2023/07/08 06:41:36;;;;;;;5.18;2.58;;;24.60;86.20;;;;;;4247113;27;20047;-50
2023/07/08 06:43:38;;;;;;;8.10;3.08;;;24.60;85.80;;;;;;4248870;27;20588;-51
2023/07/08 06:45:40;;;;;;;8.63;2.83;;;24.60;86.70;;;;;;4248904;27;20459;-49
2023/07/08 06:47:43;;;;;;;8.05;2.90;;;24.60;87.30;;;;;;4249201;27;20486;-50
2023/07/08 06:49:45;;;;;;;5.88;2.75;;;24.60;87.60;;;;;;4249101;27;20047;-50
2023/07/08 06:51:48;;;;;;;11.48;2.90;;;24.70;88.00;;;;;;4229548;28;20134;-50
2023/07/08 06:53:50;;;;;;;8.55;2.78;;;24.70;88.20;;;;;;4248962;27;20039;-51
2023/07/08 06:55:53;;;;;;;6.18;2.70;;;24.70;87.60;;;;;;4248743;27;20050;-52
2023/07/08 06:57:55;;;;;;;5.88;2.88;;;24.70;87.00;;;;;;4248496;27;20058;-50
2023/07/08 06:59:58;;;;;;;6.03;2.58;;;24.70;86.90;;;;;;4248598;27;20054;-50
2023/07/08 07:02:00;;;;;;;4.10;2.45;;;24.70;86.80;;;;;;4247805;27;20498;-51
2023/07/08 07:04:03;;;;;;;4.43;2.42;;;24.80;86.50;;;;;;4248778;27;20051;-50
2023/07/08 07:06:05;;;;;;;6.88;2.72;;;24.90;86.70;;;;;;4248649;27;20096;-51
2023/07/08 07:08:08;;;;;;;6.47;2.22;;;25.10;86.60;;;;;;4248849;27;20047;-51
2023/07/08 07:10:10;;;;;;;7.40;2.40;;;25.20;86.50;;;;;;4248507;27;20043;-50
2023/07/08 07:12:13;;;;;;;3.55;2.22;;;25.30;86.70;;;;;;4247377;27;20131;-50
2023/07/08 07:14:15;;;;;;;6.38;2.72;;;25.50;86.50;;;;;;4248378;27;20043;-50
2023/07/08 07:16:20;;;;;;;4.63;2.40;;;25.60;86.30;;;;;;4248369;27;20071;-52
2023/07/08 07:18:22;;;;;;;4.60;2.08;;;25.70;85.30;;;;;;4248595;27;20126;-53
2023/07/08 07:20:24;;;;;;;6.47;2.53;;;25.80;84.70;;;;;;4248191;27;20071;-50
2023/07/08 07:22:28;;;;;;;9.75;2.65;;;26.10;84.60;;;;;;4247253;27;20053;-53
2023/07/08 07:24:31;;;;;;;5.72;2.65;;;26.10;83.70;;;;;;4248062;27;20058;-51
2023/07/08 07:26:34;;;;;;;4.68;2.65;;;26.20;83.90;;;;;;4247872;27;20051;-52
2023/07/08 07:28:36;;;;;;;3.63;2.33;;;26.30;84.10;;;;;;4248406;27;20043;-52
2023/07/08 07:30:38;;;;;;;5.38;2.50;;;26.50;83.40;;;;;;4248215;27;20054;-53
2023/07/08 07:32:40;;;;;;;4.68;2.47;;;26.60;83.10;;;;;;4247662;27;20100;-52
2023/07/08 07:34:45;;;;;;;5.93;2.45;;;26.70;82.90;;;;;;4248110;27;20054;-52
2023/07/08 07:36:47;;;;;;;4.03;2.42;;;26.80;82.20;;;;;;4248038;27;20061;-50
2023/07/08 07:38:49;;;;;;;5.60;2.25;;;26.90;82.60;;;;;;4248378;27;20478;-51
2023/07/08 07:40:54;;;;;;;6.22;2.45;;;27.00;81.90;;;;;;4247107;27;20039;-50
2023/07/08 07:42:56;;;;;;;9.82;2.83;;;27.00;81.70;;;;;;4247915;27;20035;-52
2023/07/08 07:44:58;;;;;;;5.20;2.53;;;27.10;81.20;;;;;;4248170;27;20101;-51
2023/07/08 07:47:01;;;;;;;5.18;2.17;;;27.20;81.70;;;;;;4248136;27;20047;-53
2023/07/08 07:49:03;;;;;;;4.72;2.10;;;27.30;81.90;;;;;;4248081;27;20486;-51
2023/07/08 07:51:10;;;;;;;4.90;2.25;;;27.30;81.10;;;;;;4246854;27;20292;-53
2023/07/08 07:53:12;;;;;;;7.20;2.47;;;27.50;81.40;;;;;;4247838;27;20120;-51
2023/07/08 07:55:14;;;;;;;4.75;2.42;;;27.60;81.30;;;;;;4248014;27;20076;-54
2023/07/08 07:57:18;;;;;;;4.15;2.03;;;27.60;81.20;;;;;;4247592;27;20066;-52
2023/07/08 07:59:20;;;;;;;4.30;2.25;;;27.70;81.00;;;;;;4247939;27;20054;-53
2023/07/08 08:01:22;;;;;;;6.43;2.38;;;27.70;80.70;;;;;;4246899;27;20067;-51
2023/07/08 08:03:24;;;;;;;4.10;2.38;;;27.80;80.70;;;;;;4247729;27;20040;-53
2023/07/08 08:05:26;;;;;;;6.68;2.90;;;27.80;80.30;;;;;;4247804;27;20043;-51
2023/07/08 08:07:28;;;;;;;5.55;2.15;;;27.90;80.50;;;;;;4229330;28;20048;-52
2023/07/08 08:09:30;;;;;;;14.43;2.83;;;27.90;80.40;;;;;;4247620;27;20456;-51
2023/07/08 08:11:33;;;;;;;6.65;2.35;;;28.00;80.20;;;;;;4246088;27;20092;-52
2023/07/08 08:13:36;;;;;;;3.92;2.35;;;28.10;80.30;;;;;;4247626;27;20043;-50
2023/07/08 08:15:39;;;;;;;4.57;2.45;;;28.10;80.30;;;;;;4247710;27;20383;-52
2023/07/08 08:17:41;;;;;;;5.35;2.60;;;28.10;79.60;;;;;;4247602;27;20446;-51
2023/07/08 08:19:43;;;;;;;6.82;2.92;;;28.20;80.00;;;;;;4247609;27;20470;-51
2023/07/08 08:21:45;;;;;;;7.80;2.15;;;28.30;80.00;;;;;;4246287;27;20053;-51
2023/07/08 08:23:47;;;;;;;7.43;3.55;;;28.40;79.90;;;;;;4247424;27;20051;-50
2023/07/08 08:25:50;;;;;;;13.57;4.07;;;28.40;79.40;;;;;;4247444;27;20066;-52
2023/07/08 08:27:52;;;;;;;6.20;2.95;;;28.40;79.20;;;;;;4247570;27;20040;-51
2023/07/08 08:29:56;;;;;;;6.10;2.70;;;28.50;79.20;;;;;;4247413;27;20047;-52
2023/07/08 08:31:58;;;;;;;7.18;2.90;;;28.50;79.20;;;;;;4246718;27;20418;-51
2023/07/08 08:34:00;;;;;;;6.75;2.83;;;28.70;78.90;;;;;;4247512;27;20047;-51
2023/07/08 08:36:02;;;;;;;7.80;2.55;;;28.70;78.80;;;;;;4247317;27;20045;-53
2023/07/08 08:38:05;;;;;;;5.35;2.50;;;28.80;79.00;;;;;;4247392;27;20043;-51
2023/07/08 08:40:12;;;;;;;3.72;2.20;;;28.70;78.90;;;;;;4246868;28;20061;-52
2023/07/08 08:42:27;;;;;;;4.53;2.30;;;28.70;78.80;;;;;;4246142;28;20100;-52
2023/07/08 08:44:34;;;;;;;6.78;2.53;;;28.60;78.50;;;;;;4247323;28;20406;-52
2023/07/08 08:46:45;;;;;;;4.55;2.50;;;28.50;78.60;;;;;;4247202;27;20191;-52
2023/07/08 08:48:55;;;;;;;4.63;2.42;;;28.70;79.00;;;;;;4247363;28;20043;-52
2023/07/08 08:51:01;;;;;;;4.03;2.25;;;28.70;78.70;;;;;;4246764;28;20395;-51
2023/07/08 08:53:09;;;;;;;5.70;2.83;;;28.80;79.70;;;;;;4247111;28;20074;-51
2023/07/08 08:55:12;;;;;;;3.90;2.53;;;28.90;78.80;;;;;;4247062;28;20447;-52
2023/07/08 08:57:30;;;;;;;5.38;2.50;;;28.90;78.60;;;;;;4247309;28;20067;-52
2023/07/08 08:59:42;;;;;;;8.93;2.70;;;28.80;79.10;;;;;;4247117;28;20047;-52
2023/07/08 09:01:47;;;;;;;4.45;2.47;;;28.80;79.20;;;;;;4246253;28;20097;-53
2023/07/08 09:03:54;;;;;;;5.38;2.80;;;28.90;79.30;;;;;;4248397;27;20061;-51
2023/07/08 09:05:59;;;;;;;4.53;2.28;;;28.90;78.90;;;;;;4250645;27;20047;-53
2023/07/08 09:08:10;;;;;;;7.00;2.80;;;29.00;79.10;;;;;;4250272;27;20096;-51
2023/07/08 09:10:25;;;;;;;6.78;2.83;;;29.00;79.20;;;;;;4250555;27;20047;-52
2023/07/08 09:12:30;;;;;;;4.28;2.40;;;29.10;79.10;;;;;;4249708;27;20043;-52
2023/07/08 09:14:34;;;;;;;5.53;2.67;;;29.10;79.20;;;;;;4250201;27;20043;-52
2023/07/08 09:16:43;;;;;;;4.28;2.38;;;29.10;79.10;;;;;;4250446;27;20078;-52
2023/07/08 09:18:58;;;;;;;4.95;3.00;;;29.10;79.00;;;;;;4248498;27;20043;-52
2023/07/08 09:21:06;;;;;;;4.55;2.10;;;29.10;79.10;;;;;;4232785;28;20043;-54
2023/07/08 09:23:20;;;;;;;5.35;2.60;;;29.20;79.20;;;;;;4232764;28;20043;-54
2023/07/08 09:25:29;;;;;;;7.35;2.58;;;29.30;78.50;;;;;;4232398;28;20120;-55
2023/07/08 09:27:31;;;;;;;6.93;2.67;;;29.30;79.00;;;;;;4242616;27;20043;-54
2023/07/08 09:29:33;;;;;;;4.38;2.30;;;29.40;79.20;;;;;;4248825;27;20378;-54
2023/07/08 09:31:39;;;;;;;6.75;2.75;;;29.40;79.30;;;;;;4249286;27;20092;-54
2023/07/08 09:33:41;;;;;;;6.55;2.65;;;29.40;79.20;;;;;;4235391;27;20058;-54
2023/07/08 09:35:47;;;;;;;4.72;2.50;;;29.30;79.30;;;;;;4238928;27;20138;-54
2023/07/08 09:37:51;;;;;;;8.90;3.03;;;29.40;78.90;;;;;;4236245;27;20127;-52
2023/07/08 09:39:54;;;;;;;5.80;2.47;;;29.40;79.30;;;;;;4233031;28;20048;-54
2023/07/08 09:41:56;;;;;;;3.50;2.10;;;29.50;78.50;;;;;;4231766;28;20054;-52
2023/07/08 09:44:15;;;;;;;6.25;2.67;;;29.60;78.80;;;;;;4236284;27;20122;-53
2023/07/08 09:46:20;;;;;;;7.28;4.47;;;29.70;78.50;;;;;;4240340;27;20408;-54
2023/07/08 09:48:25;;;;;;;4.03;2.40;;;29.60;78.60;;;;;;4247867;27;20051;-53
2023/07/08 09:50:29;;;;;;;5.88;3.00;;;29.60;78.00;;;;;;4246369;27;20082;-54
2023/07/08 09:52:33;;;;;;;4.35;2.92;;;29.60;80.10;;;;;;4247836;27;20051;-56
2023/07/08 09:54:35;;;;;;;2.92;2.33;;;29.80;80.40;;;;;;4249760;27;20051;-56
2023/07/08 09:56:41;;;;;;;8.00;2.97;;;29.90;80.20;;;;;;4249715;27;20188;-56
2023/07/08 09:58:48;;;;;;;5.45;2.17;;;29.90;79.90;;;;;;4249887;27;20398;-54
2023/07/08 10:00:54;;;;;;;4.15;2.42;;;29.90;79.20;;;;;;4249462;27;20043;-54
2023/07/08 10:02:58;;;;;;;7.40;2.92;;;30.00;79.20;;;;;;4245484;27;20513;-54
2023/07/08 10:05:11;;;;;;;6.27;3.10;;;30.10;79.20;;;;;;4247692;27;20043;-56
2023/07/08 10:07:16;;;;;;;5.28;2.65;;;30.30;78.50;;;;;;4247311;27;20466;-54
2023/07/08 10:09:23;;;;;;;6.72;2.70;;;30.40;78.90;;;;;;4248942;27;20049;-52
2023/07/08 10:11:27;;;;;;;5.30;2.40;;;30.30;78.20;;;;;;4245680;27;20172;-55
2023/07/08 10:13:38;;;;;;;5.43;2.33;;;30.40;78.10;;;;;;4248721;27;20047;-53
2023/07/08 10:15:45;;;;;;;4.50;2.22;;;30.40;77.20;;;;;;4247895;27;20047;-52
2023/07/08 10:17:47;;;;;;;4.40;2.55;;;30.50;77.30;;;;;;4231208;28;20043;-52
2023/07/08 10:19:50;;;;;;;7.85;2.50;;;30.50;76.60;;;;;;4249395;27;20466;-53
2023/07/08 10:22:03;;;;;;;6.78;2.25;;;30.50;75.40;;;;;;4229588;28;20039;-53
2023/07/08 10:24:26;;;;;;;5.70;2.50;;;30.50;75.50;;;;;;4248901;27;20133;-52
2023/07/08 10:26:31;;;;;;;4.63;2.40;;;30.50;75.90;;;;;;4249241;27;20449;-56
2023/07/08 10:28:42;;;;;;;7.72;2.67;;;30.50;75.80;;;;;;4249155;27;20043;-56
2023/07/08 10:30:55;;;;;;;4.10;2.53;;;30.60;75.70;;;;;;4249081;27;20456;-51
2023/07/08 10:33:23;;;;;;;4.90;2.30;;;30.50;76.00;;;;;;4247854;27;20063;-52
2023/07/08 10:35:28;;;;;;;5.45;2.88;;;30.60;74.40;;;;;;4248525;27;20066;-51
2023/07/08 10:37:41;;;;;;;6.97;2.40;;;30.60;76.10;;;;;;4249142;27;20405;-52
2023/07/08 10:39:55;;;;;;;3.30;2.42;;;30.60;75.90;;;;;;4248748;27;20098;-55
2023/07/08 10:42:04;;;;;;;4.07;2.50;;;30.70;75.50;;;;;;4247855;27;20047;-57
2023/07/08 10:44:12;;;;;;;6.28;2.33;;;30.70;75.70;;;;;;4248899;27;20498;-55